sensor_id;sensor_type;location;lat;lon;timestamp;temperature;humidity
23143;DHT22;11740;51.168;4.112;2023-05-29T00:00:37;16.70;8.60
23143;DHT22;11740;51.168;4.112;2023-05-29T00:03:03;16.60;9.80
23143;DHT22;11740;51.168;4.112;2023-05-29T00:05:31;16.50;15.60
23143;DHT22;11740;51.168;4.112;2023-05-29T00:07:58;16.30;40.60
23143;DHT22;11740;51.168;4.112;2023-05-29T00:10:26;16.20;53.20
23143;DHT22;11740;51.168;4.112;2023-05-29T00:12:53;16.20;48.80
23143;DHT22;11740;51.168;4.112;2023-05-29T00:15:20;16.20;52.10
23143;DHT22;11740;51.168;4.112;2023-05-29T00:17:46;16.10;55.60
23143;DHT22;11740;51.168;4.112;2023-05-29T00:20:13;16.10;48.10
23143;DHT22;11740;51.168;4.112;2023-05-29T00:22:40;16.00;60.60
23143;DHT22;11740;51.168;4.112;2023-05-29T00:25:08;15.80;70.50
23143;DHT22;11740;51.168;4.112;2023-05-29T00:27:35;15.80;82.70
23143;DHT22;11740;51.168;4.112;2023-05-29T00:30:02;15.80;74.90
23143;DHT22;11740;51.168;4.112;2023-05-29T00:32:30;15.80;76.40
23143;DHT22;11740;51.168;4.112;2023-05-29T00:34:57;15.70;89.50
23143;DHT22;11740;51.168;4.112;2023-05-29T00:37:24;15.60;94.30
23143;DHT22;11740;51.168;4.112;2023-05-29T00:39:52;15.50;96.00
23143;DHT22;11740;51.168;4.112;2023-05-29T00:42:19;15.50;99.90
23143;DHT22;11740;51.168;4.112;2023-05-29T00:44:45;15.40;98.30
23143;DHT22;11740;51.168;4.112;2023-05-29T00:47:12;15.40;99.90
23143;DHT22;11740;51.168;4.112;2023-05-29T00:49:39;15.30;99.90
23143;DHT22;11740;51.168;4.112;2023-05-29T00:52:06;15.20;85.10
23143;DHT22;11740;51.168;4.112;2023-05-29T00:54:34;15.10;70.30
23143;DHT22;11740;51.168;4.112;2023-05-29T00:57:01;15.00;74.50
23143;DHT22;11740;51.168;4.112;2023-05-29T00:59:30;14.90;65.80
23143;DHT22;11740;51.168;4.112;2023-05-29T01:02:02;14.90;60.40
23143;DHT22;11740;51.168;4.112;2023-05-29T01:04:29;14.90;59.10
23143;DHT22;11740;51.168;4.112;2023-05-29T01:07:00;14.80;53.20
23143;DHT22;11740;51.168;4.112;2023-05-29T01:09:29;14.80;54.60
23143;DHT22;11740;51.168;4.112;2023-05-29T01:20:41;14.50;45.40
23143;DHT22;11740;51.168;4.112;2023-05-29T01:28:29;14.30;79.70
23143;DHT22;11740;51.168;4.112;2023-05-29T01:31:00;14.20;45.70
23143;DHT22;11740;51.168;4.112;2023-05-29T01:33:27;14.20;46.10
23143;DHT22;11740;51.168;4.112;2023-05-29T01:35:54;14.20;38.20
23143;DHT22;11740;51.168;4.112;2023-05-29T01:38:21;14.10;41.70
23143;DHT22;11740;51.168;4.112;2023-05-29T01:40:48;14.10;42.90
23143;DHT22;11740;51.168;4.112;2023-05-29T01:43:15;14.00;45.50
23143;DHT22;11740;51.168;4.112;2023-05-29T01:45:41;13.90;42.60
23143;DHT22;11740;51.168;4.112;2023-05-29T01:48:09;13.80;47.40
23143;DHT22;11740;51.168;4.112;2023-05-29T01:50:36;13.80;33.70
23143;DHT22;11740;51.168;4.112;2023-05-29T01:53:03;13.70;31.70
23143;DHT22;11740;51.168;4.112;2023-05-29T01:55:30;13.70;31.80
23143;DHT22;11740;51.168;4.112;2023-05-29T01:57:56;13.60;25.10
23143;DHT22;11740;51.168;4.112;2023-05-29T02:00:23;13.60;25.60
23143;DHT22;11740;51.168;4.112;2023-05-29T02:02:50;13.50;26.70
23143;DHT22;11740;51.168;4.112;2023-05-29T02:05:17;13.50;30.70
23143;DHT22;11740;51.168;4.112;2023-05-29T02:07:44;13.50;28.50
23143;DHT22;11740;51.168;4.112;2023-05-29T02:10:12;13.40;31.30
23143;DHT22;11740;51.168;4.112;2023-05-29T02:12:38;13.40;27.40
23143;DHT22;11740;51.168;4.112;2023-05-29T02:15:06;13.40;39.80
23143;DHT22;11740;51.168;4.112;2023-05-29T02:17:34;13.30;28.50
23143;DHT22;11740;51.168;4.112;2023-05-29T02:20:01;13.30;28.00
23143;DHT22;11740;51.168;4.112;2023-05-29T02:22:30;13.30;24.10
23143;DHT22;11740;51.168;4.112;2023-05-29T02:24:57;13.30;26.80
23143;DHT22;11740;51.168;4.112;2023-05-29T02:27:24;13.20;27.60
23143;DHT22;11740;51.168;4.112;2023-05-29T02:29:51;13.20;31.30
23143;DHT22;11740;51.168;4.112;2023-05-29T02:32:18;13.20;29.10
23143;DHT22;11740;51.168;4.112;2023-05-29T02:34:44;13.20;23.20
23143;DHT22;11740;51.168;4.112;2023-05-29T02:37:12;13.20;25.40
23143;DHT22;11740;51.168;4.112;2023-05-29T02:39:38;13.10;25.90
23143;DHT22;11740;51.168;4.112;2023-05-29T02:42:06;13.00;25.00
23143;DHT22;11740;51.168;4.112;2023-05-29T02:44:33;12.90;34.20
23143;DHT22;11740;51.168;4.112;2023-05-29T02:47:00;12.90;37.80
23143;DHT22;11740;51.168;4.112;2023-05-29T02:49:26;12.90;38.00
23143;DHT22;11740;51.168;4.112;2023-05-29T02:51:53;12.80;35.50
23143;DHT22;11740;51.168;4.112;2023-05-29T02:54:23;12.80;36.90
23143;DHT22;11740;51.168;4.112;2023-05-29T02:56:52;12.80;31.80
23143;DHT22;11740;51.168;4.112;2023-05-29T02:59:19;12.80;35.20
23143;DHT22;11740;51.168;4.112;2023-05-29T03:01:46;12.70;34.30
23143;DHT22;11740;51.168;4.112;2023-05-29T03:04:14;12.70;35.60
23143;DHT22;11740;51.168;4.112;2023-05-29T03:06:41;12.60;39.30
23143;DHT22;11740;51.168;4.112;2023-05-29T03:09:08;12.60;37.40
23143;DHT22;11740;51.168;4.112;2023-05-29T03:11:35;12.60;30.50
23143;DHT22;11740;51.168;4.112;2023-05-29T03:14:02;12.60;43.00
23143;DHT22;11740;51.168;4.112;2023-05-29T03:16:29;12.50;69.50
23143;DHT22;11740;51.168;4.112;2023-05-29T03:18:58;12.50;42.90
23143;DHT22;11740;51.168;4.112;2023-05-29T03:21:24;12.40;44.60
23143;DHT22;11740;51.168;4.112;2023-05-29T03:23:51;12.40;49.20
23143;DHT22;11740;51.168;4.112;2023-05-29T03:26:18;12.40;41.20
23143;DHT22;11740;51.168;4.112;2023-05-29T03:28:45;12.30;56.70
23143;DHT22;11740;51.168;4.112;2023-05-29T03:31:12;12.30;73.60
23143;DHT22;11740;51.168;4.112;2023-05-29T03:33:38;12.30;86.80
23143;DHT22;11740;51.168;4.112;2023-05-29T03:36:05;12.20;99.90
23143;DHT22;11740;51.168;4.112;2023-05-29T03:38:34;12.20;99.90
23143;DHT22;11740;51.168;4.112;2023-05-29T03:41:01;12.20;99.90
23143;DHT22;11740;51.168;4.112;2023-05-29T03:43:27;12.10;99.90
23143;DHT22;11740;51.168;4.112;2023-05-29T03:45:54;12.10;99.90
23143;DHT22;11740;51.168;4.112;2023-05-29T03:48:21;12.10;99.90
23143;DHT22;11740;51.168;4.112;2023-05-29T03:50:48;12.00;99.90
23143;DHT22;11740;51.168;4.112;2023-05-29T03:53:15;12.00;99.90
23143;DHT22;11740;51.168;4.112;2023-05-29T03:55:42;12.00;99.90
23143;DHT22;11740;51.168;4.112;2023-05-29T03:58:09;11.90;99.90
23143;DHT22;11740;51.168;4.112;2023-05-29T04:00:38;11.90;99.90
23143;DHT22;11740;51.168;4.112;2023-05-29T04:03:06;11.90;99.90
23143;DHT22;11740;51.168;4.112;2023-05-29T04:05:33;11.90;99.90
23143;DHT22;11740;51.168;4.112;2023-05-29T04:08:00;11.90;99.90
23143;DHT22;11740;51.168;4.112;2023-05-29T04:10:41;11.80;99.90
23143;DHT22;11740;51.168;4.112;2023-05-29T04:13:08;11.80;99.90
23143;DHT22;11740;51.168;4.112;2023-05-29T04:15:35;11.80;99.90
23143;DHT22;11740;51.168;4.112;2023-05-29T04:18:01;11.80;99.90
23143;DHT22;11740;51.168;4.112;2023-05-29T04:20:28;11.70;99.90
23143;DHT22;11740;51.168;4.112;2023-05-29T04:22:56;11.70;99.90
23143;DHT22;11740;51.168;4.112;2023-05-29T04:25:23;11.70;99.90
23143;DHT22;11740;51.168;4.112;2023-05-29T04:27:50;11.70;99.90
23143;DHT22;11740;51.168;4.112;2023-05-29T04:30:17;11.70;99.90
23143;DHT22;11740;51.168;4.112;2023-05-29T04:32:44;11.70;99.90
23143;DHT22;11740;51.168;4.112;2023-05-29T04:35:13;11.60;99.90
23143;DHT22;11740;51.168;4.112;2023-05-29T04:37:40;11.60;99.90
23143;DHT22;11740;51.168;4.112;2023-05-29T04:40:07;11.70;99.90
23143;DHT22;11740;51.168;4.112;2023-05-29T04:42:41;11.60;99.90
23143;DHT22;11740;51.168;4.112;2023-05-29T04:45:08;11.60;99.90
23143;DHT22;11740;51.168;4.112;2023-05-29T04:47:37;11.60;99.90
23143;DHT22;11740;51.168;4.112;2023-05-29T04:50:10;11.60;99.90
23143;DHT22;11740;51.168;4.112;2023-05-29T04:52:37;11.60;99.90
23143;DHT22;11740;51.168;4.112;2023-05-29T04:55:05;11.60;99.90
23143;DHT22;11740;51.168;4.112;2023-05-29T04:57:32;11.60;99.90
23143;DHT22;11740;51.168;4.112;2023-05-29T04:59:59;11.60;99.90
23143;DHT22;11740;51.168;4.112;2023-05-29T05:02:26;11.60;99.90
23143;DHT22;11740;51.168;4.112;2023-05-29T05:04:52;11.60;99.90
23143;DHT22;11740;51.168;4.112;2023-05-29T05:07:19;11.60;99.90
23143;DHT22;11740;51.168;4.112;2023-05-29T05:09:46;11.50;99.90
23143;DHT22;11740;51.168;4.112;2023-05-29T05:12:13;11.60;99.90
23143;DHT22;11740;51.168;4.112;2023-05-29T05:14:39;11.50;99.90
23143;DHT22;11740;51.168;4.112;2023-05-29T05:17:06;11.50;99.90
23143;DHT22;11740;51.168;4.112;2023-05-29T05:19:33;11.60;99.90
23143;DHT22;11740;51.168;4.112;2023-05-29T05:22:00;11.60;99.90
23143;DHT22;11740;51.168;4.112;2023-05-29T05:24:27;11.60;99.90
23143;DHT22;11740;51.168;4.112;2023-05-29T05:26:54;11.50;99.90
23143;DHT22;11740;51.168;4.112;2023-05-29T05:29:21;11.60;99.90
23143;DHT22;11740;51.168;4.112;2023-05-29T05:31:48;11.60;99.90
23143;DHT22;11740;51.168;4.112;2023-05-29T05:34:14;11.60;99.90
23143;DHT22;11740;51.168;4.112;2023-05-29T05:36:41;11.60;99.90
23143;DHT22;11740;51.168;4.112;2023-05-29T05:39:08;11.60;99.90
23143;DHT22;11740;51.168;4.112;2023-05-29T05:41:35;11.60;99.90
23143;DHT22;11740;51.168;4.112;2023-05-29T05:44:02;11.60;99.90
23143;DHT22;11740;51.168;4.112;2023-05-29T05:46:28;11.60;99.90
23143;DHT22;11740;51.168;4.112;2023-05-29T05:48:55;11.70;99.90
23143;DHT22;11740;51.168;4.112;2023-05-29T05:51:23;11.70;99.90
23143;DHT22;11740;51.168;4.112;2023-05-29T05:53:50;11.70;99.90
23143;DHT22;11740;51.168;4.112;2023-05-29T05:56:17;11.70;99.90
23143;DHT22;11740;51.168;4.112;2023-05-29T05:58:44;11.70;99.90
23143;DHT22;11740;51.168;4.112;2023-05-29T06:01:11;11.70;99.90
23143;DHT22;11740;51.168;4.112;2023-05-29T06:03:38;11.80;99.90
23143;DHT22;11740;51.168;4.112;2023-05-29T06:06:05;11.80;99.90
23143;DHT22;11740;51.168;4.112;2023-05-29T06:08:34;11.80;99.90
23143;DHT22;11740;51.168;4.112;2023-05-29T06:11:01;11.80;99.90
23143;DHT22;11740;51.168;4.112;2023-05-29T06:13:27;11.80;99.90
23143;DHT22;11740;51.168;4.112;2023-05-29T06:15:54;11.90;99.90
23143;DHT22;11740;51.168;4.112;2023-05-29T06:18:21;11.90;99.90
23143;DHT22;11740;51.168;4.112;2023-05-29T06:20:48;11.90;99.90
23143;DHT22;11740;51.168;4.112;2023-05-29T06:23:15;12.00;99.90
23143;DHT22;11740;51.168;4.112;2023-05-29T06:25:42;11.90;99.90
23143;DHT22;11740;51.168;4.112;2023-05-29T06:28:09;11.90;99.90
23143;DHT22;11740;51.168;4.112;2023-05-29T06:30:36;12.00;99.90
23143;DHT22;11740;51.168;4.112;2023-05-29T06:33:03;12.00;99.90
23143;DHT22;11740;51.168;4.112;2023-05-29T06:35:30;12.00;99.90
23143;DHT22;11740;51.168;4.112;2023-05-29T06:37:57;12.00;99.90
23143;DHT22;11740;51.168;4.112;2023-05-29T06:40:24;12.10;99.90
23143;DHT22;11740;51.168;4.112;2023-05-29T06:42:51;12.10;99.90
23143;DHT22;11740;51.168;4.112;2023-05-29T06:45:17;12.20;99.90
23143;DHT22;11740;51.168;4.112;2023-05-29T06:47:44;12.20;99.90
23143;DHT22;11740;51.168;4.112;2023-05-29T06:50:11;12.30;99.90
23143;DHT22;11740;51.168;4.112;2023-05-29T06:52:38;12.30;99.90
23143;DHT22;11740;51.168;4.112;2023-05-29T06:55:05;12.30;99.90
23143;DHT22;11740;51.168;4.112;2023-05-29T06:57:32;12.40;99.90
23143;DHT22;11740;51.168;4.112;2023-05-29T06:59:59;12.40;99.90
23143;DHT22;11740;51.168;4.112;2023-05-29T07:02:26;12.50;99.90
23143;DHT22;11740;51.168;4.112;2023-05-29T07:04:53;12.50;99.90
23143;DHT22;11740;51.168;4.112;2023-05-29T07:07:19;12.50;99.90
23143;DHT22;11740;51.168;4.112;2023-05-29T07:09:46;12.50;99.90
23143;DHT22;11740;51.168;4.112;2023-05-29T07:12:13;12.50;99.90
23143;DHT22;11740;51.168;4.112;2023-05-29T07:14:40;12.60;99.90
23143;DHT22;11740;51.168;4.112;2023-05-29T07:17:06;12.60;99.90
23143;DHT22;11740;51.168;4.112;2023-05-29T07:19:33;12.70;99.90
23143;DHT22;11740;51.168;4.112;2023-05-29T07:22:00;12.70;99.90
23143;DHT22;11740;51.168;4.112;2023-05-29T07:24:27;12.70;99.90
23143;DHT22;11740;51.168;4.112;2023-05-29T07:26:54;12.80;99.90
23143;DHT22;11740;51.168;4.112;2023-05-29T07:29:22;12.80;99.90
23143;DHT22;11740;51.168;4.112;2023-05-29T07:31:50;12.80;99.90
23143;DHT22;11740;51.168;4.112;2023-05-29T07:34:17;12.90;99.90
23143;DHT22;11740;51.168;4.112;2023-05-29T07:39:24;13.00;99.90
23143;DHT22;11740;51.168;4.112;2023-05-29T07:41:50;13.00;99.90
23143;DHT22;11740;51.168;4.112;2023-05-29T07:44:18;13.00;99.90
23143;DHT22;11740;51.168;4.112;2023-05-29T07:46:45;13.10;99.90
23143;DHT22;11740;51.168;4.112;2023-05-29T07:49:12;13.10;99.90
23143;DHT22;11740;51.168;4.112;2023-05-29T07:51:39;13.20;99.90
23143;DHT22;11740;51.168;4.112;2023-05-29T07:54:06;13.30;99.90
23143;DHT22;11740;51.168;4.112;2023-05-29T07:56:33;13.30;99.90
23143;DHT22;11740;51.168;4.112;2023-05-29T07:59:00;13.50;99.90
23143;DHT22;11740;51.168;4.112;2023-05-29T08:01:27;13.60;99.90
23143;DHT22;11740;51.168;4.112;2023-05-29T08:03:54;13.60;99.90
23143;DHT22;11740;51.168;4.112;2023-05-29T08:06:22;13.70;99.90
23143;DHT22;11740;51.168;4.112;2023-05-29T08:08:48;13.90;99.90
23143;DHT22;11740;51.168;4.112;2023-05-29T08:11:15;14.00;99.90
23143;DHT22;11740;51.168;4.112;2023-05-29T08:13:42;14.10;99.90
23143;DHT22;11740;51.168;4.112;2023-05-29T08:16:09;14.30;97.00
23143;DHT22;11740;51.168;4.112;2023-05-29T08:18:36;14.40;90.10
23143;DHT22;11740;51.168;4.112;2023-05-29T08:21:03;14.50;80.50
23143;DHT22;11740;51.168;4.112;2023-05-29T08:23:30;14.60;72.60
23143;DHT22;11740;51.168;4.112;2023-05-29T08:26:01;14.80;71.20
23143;DHT22;11740;51.168;4.112;2023-05-29T08:28:29;14.90;53.70
23143;DHT22;11740;51.168;4.112;2023-05-29T08:30:56;15.00;61.70
23143;DHT22;11740;51.168;4.112;2023-05-29T08:33:23;15.10;42.30
23143;DHT22;11740;51.168;4.112;2023-05-29T08:35:49;15.20;37.60
23143;DHT22;11740;51.168;4.112;2023-05-29T08:38:16;15.30;31.70
23143;DHT22;11740;51.168;4.112;2023-05-29T08:40:43;15.50;29.20
23143;DHT22;11740;51.168;4.112;2023-05-29T08:43:22;15.70;28.00
23143;DHT22;11740;51.168;4.112;2023-05-29T08:45:53;15.80;19.50
23143;DHT22;11740;51.168;4.112;2023-05-29T08:48:24;16.00;15.00
23143;DHT22;11740;51.168;4.112;2023-05-29T08:50:55;16.10;16.70
23143;DHT22;11740;51.168;4.112;2023-05-29T08:53:24;16.20;17.90
23143;DHT22;11740;51.168;4.112;2023-05-29T08:55:51;16.30;13.10
23143;DHT22;11740;51.168;4.112;2023-05-29T08:58:19;16.40;10.20
23143;DHT22;11740;51.168;4.112;2023-05-29T09:00:55;16.60;11.10
23143;DHT22;11740;51.168;4.112;2023-05-29T09:03:23;16.60;9.10
23143;DHT22;11740;51.168;4.112;2023-05-29T09:05:50;16.70;9.00
23143;DHT22;11740;51.168;4.112;2023-05-29T09:08:17;16.70;4.80
23143;DHT22;11740;51.168;4.112;2023-05-29T09:10:44;16.70;8.60
23143;DHT22;11740;51.168;4.112;2023-05-29T09:13:12;16.80;9.10
23143;DHT22;11740;51.168;4.112;2023-05-29T09:15:40;17.00;12.30
23143;DHT22;11740;51.168;4.112;2023-05-29T09:18:10;17.10;11.90
23143;DHT22;11740;51.168;4.112;2023-05-29T09:20:38;17.10;7.10
23143;DHT22;11740;51.168;4.112;2023-05-29T09:23:06;17.20;12.50
23143;DHT22;11740;51.168;4.112;2023-05-29T09:25:36;17.50;13.30
23143;DHT22;11740;51.168;4.112;2023-05-29T09:28:07;17.40;5.80
23143;DHT22;11740;51.168;4.112;2023-05-29T09:30:39;17.40;13.70
23143;DHT22;11740;51.168;4.112;2023-05-29T09:33:13;17.50;6.90
23143;DHT22;11740;51.168;4.112;2023-05-29T09:38:09;17.70;4.20
23143;DHT22;11740;51.168;4.112;2023-05-29T09:40:42;17.60;1.00
23143;DHT22;11740;51.168;4.112;2023-05-29T09:43:12;17.70;1.00
23143;DHT22;11740;51.168;4.112;2023-05-29T09:45:48;17.60;1.00
23143;DHT22;11740;51.168;4.112;2023-05-29T09:48:16;17.80;1.00
23143;DHT22;11740;51.168;4.112;2023-05-29T09:50:44;17.90;1.00
23143;DHT22;11740;51.168;4.112;2023-05-29T09:56:02;18.10;1.00
23143;DHT22;11740;51.168;4.112;2023-05-29T09:58:30;18.20;1.00
23143;DHT22;11740;51.168;4.112;2023-05-29T10:00:59;18.20;1.00
23143;DHT22;11740;51.168;4.112;2023-05-29T10:03:27;18.30;1.00
23143;DHT22;11740;51.168;4.112;2023-05-29T10:05:56;18.30;1.00
23143;DHT22;11740;51.168;4.112;2023-05-29T10:08:24;18.30;1.00
23143;DHT22;11740;51.168;4.112;2023-05-29T10:11:02;18.40;1.00
23143;DHT22;11740;51.168;4.112;2023-05-29T10:13:30;18.50;1.00
23143;DHT22;11740;51.168;4.112;2023-05-29T10:15:59;18.50;1.00
23143;DHT22;11740;51.168;4.112;2023-05-29T10:18:31;18.50;1.00
23143;DHT22;11740;51.168;4.112;2023-05-29T10:21:04;18.60;1.00
23143;DHT22;11740;51.168;4.112;2023-05-29T10:23:32;18.60;1.00
23143;DHT22;11740;51.168;4.112;2023-05-29T10:26:19;18.60;1.00
23143;DHT22;11740;51.168;4.112;2023-05-29T10:28:55;18.70;1.00
23143;DHT22;11740;51.168;4.112;2023-05-29T10:31:28;18.80;1.00
23143;DHT22;11740;51.168;4.112;2023-05-29T10:37:29;18.70;1.00
23143;DHT22;11740;51.168;4.112;2023-05-29T10:40:02;18.80;1.00
23143;DHT22;11740;51.168;4.112;2023-05-29T10:47:55;19.00;1.00
23143;DHT22;11740;51.168;4.112;2023-05-29T10:50:56;19.00;1.00
23143;DHT22;11740;51.168;4.112;2023-05-29T10:53:17;19.10;1.00
23143;DHT22;11740;51.168;4.112;2023-05-29T10:55:50;19.10;1.00
23143;DHT22;11740;51.168;4.112;2023-05-29T10:58:18;19.30;1.00
23143;DHT22;11740;51.168;4.112;2023-05-29T11:00:46;19.30;1.00
23143;DHT22;11740;51.168;4.112;2023-05-29T11:03:32;19.40;1.00
23143;DHT22;11740;51.168;4.112;2023-05-29T11:08:33;19.50;1.00
23143;DHT22;11740;51.168;4.112;2023-05-29T11:11:13;19.60;1.00
23143;DHT22;11740;51.168;4.112;2023-05-29T11:13:40;19.70;1.00
23143;DHT22;11740;51.168;4.112;2023-05-29T11:18:46;19.80;1.00
23143;DHT22;11740;51.168;4.112;2023-05-29T11:24:00;19.90;1.00
23143;DHT22;11740;51.168;4.112;2023-05-29T11:26:36;19.90;1.00
23143;DHT22;11740;51.168;4.112;2023-05-29T11:29:04;20.00;1.00
23143;DHT22;11740;51.168;4.112;2023-05-29T11:31:33;20.00;1.00
23143;DHT22;11740;51.168;4.112;2023-05-29T11:34:02;20.20;1.00
23143;DHT22;11740;51.168;4.112;2023-05-29T11:36:32;20.30;1.00
23143;DHT22;11740;51.168;4.112;2023-05-29T11:38:59;20.40;1.00
23143;DHT22;11740;51.168;4.112;2023-05-29T11:41:27;20.40;1.00
23143;DHT22;11740;51.168;4.112;2023-05-29T11:44:00;20.50;1.00
23143;DHT22;11740;51.168;4.112;2023-05-29T11:46:29;20.60;1.00
23143;DHT22;11740;51.168;4.112;2023-05-29T11:48:59;20.60;1.00
23143;DHT22;11740;51.168;4.112;2023-05-29T11:51:26;20.70;1.00
23143;DHT22;11740;51.168;4.112;2023-05-29T11:53:53;20.80;1.00
23143;DHT22;11740;51.168;4.112;2023-05-29T11:56:25;20.80;1.00
23143;DHT22;11740;51.168;4.112;2023-05-29T11:58:53;20.80;1.00
23143;DHT22;11740;51.168;4.112;2023-05-29T12:01:24;20.90;1.00
23143;DHT22;11740;51.168;4.112;2023-05-29T12:03:52;21.10;1.00
23143;DHT22;11740;51.168;4.112;2023-05-29T12:06:31;21.20;1.00
23143;DHT22;11740;51.168;4.112;2023-05-29T12:09:00;21.40;1.00
23143;DHT22;11740;51.168;4.112;2023-05-29T12:11:29;21.30;1.00
23143;DHT22;11740;51.168;4.112;2023-05-29T12:13:59;21.50;1.00
23143;DHT22;11740;51.168;4.112;2023-05-29T12:16:27;21.60;1.00
23143;DHT22;11740;51.168;4.112;2023-05-29T12:18:56;21.70;1.00
23143;DHT22;11740;51.168;4.112;2023-05-29T12:21:22;21.70;1.00
23143;DHT22;11740;51.168;4.112;2023-05-29T12:23:53;21.70;1.00
23143;DHT22;11740;51.168;4.112;2023-05-29T12:26:36;21.80;1.00
23143;DHT22;11740;51.168;4.112;2023-05-29T12:29:03;21.90;1.00
23143;DHT22;11740;51.168;4.112;2023-05-29T12:31:31;22.10;1.00
23143;DHT22;11740;51.168;4.112;2023-05-29T12:34:06;22.30;1.00
23143;DHT22;11740;51.168;4.112;2023-05-29T12:36:34;22.40;1.00
23143;DHT22;11740;51.168;4.112;2023-05-29T12:39:04;22.10;1.00
23143;DHT22;11740;51.168;4.112;2023-05-29T12:41:36;22.10;1.00
23143;DHT22;11740;51.168;4.112;2023-05-29T12:44:04;22.50;1.00
23143;DHT22;11740;51.168;4.112;2023-05-29T12:46:55;22.70;1.00
23143;DHT22;11740;51.168;4.112;2023-05-29T12:49:23;22.90;1.00
23143;DHT22;11740;51.168;4.112;2023-05-29T12:51:52;22.80;1.00
23143;DHT22;11740;51.168;4.112;2023-05-29T12:54:19;23.00;1.00
23143;DHT22;11740;51.168;4.112;2023-05-29T12:56:45;23.00;1.00
23143;DHT22;11740;51.168;4.112;2023-05-29T12:59:13;23.20;1.00
23143;DHT22;11740;51.168;4.112;2023-05-29T13:01:40;23.40;1.00
23143;DHT22;11740;51.168;4.112;2023-05-29T13:04:07;23.20;1.00
23143;DHT22;11740;51.168;4.112;2023-05-29T13:06:35;23.20;1.00
23143;DHT22;11740;51.168;4.112;2023-05-29T13:09:02;23.20;1.00
23143;DHT22;11740;51.168;4.112;2023-05-29T13:11:29;23.30;1.00
23143;DHT22;11740;51.168;4.112;2023-05-29T13:13:56;23.40;1.00
23143;DHT22;11740;51.168;4.112;2023-05-29T13:16:23;23.50;1.00
23143;DHT22;11740;51.168;4.112;2023-05-29T13:18:50;23.50;1.00
23143;DHT22;11740;51.168;4.112;2023-05-29T13:21:16;23.60;1.00
23143;DHT22;11740;51.168;4.112;2023-05-29T13:23:43;23.70;1.00
23143;DHT22;11740;51.168;4.112;2023-05-29T13:26:10;23.90;1.00
23143;DHT22;11740;51.168;4.112;2023-05-29T13:28:37;23.90;1.00
23143;DHT22;11740;51.168;4.112;2023-05-29T13:31:04;24.10;1.00
23143;DHT22;11740;51.168;4.112;2023-05-29T13:33:31;24.00;1.00
23143;DHT22;11740;51.168;4.112;2023-05-29T13:35:58;23.90;1.00
23143;DHT22;11740;51.168;4.112;2023-05-29T13:38:25;23.90;1.00
23143;DHT22;11740;51.168;4.112;2023-05-29T13:40:52;23.90;1.00
23143;DHT22;11740;51.168;4.112;2023-05-29T13:43:18;24.10;1.00
23143;DHT22;11740;51.168;4.112;2023-05-29T13:45:52;24.00;1.00
23143;DHT22;11740;51.168;4.112;2023-05-29T13:48:19;24.10;1.00
23143;DHT22;11740;51.168;4.112;2023-05-29T13:50:46;24.30;1.00
23143;DHT22;11740;51.168;4.112;2023-05-29T13:53:13;24.30;1.00
23143;DHT22;11740;51.168;4.112;2023-05-29T13:55:40;24.50;1.00
23143;DHT22;11740;51.168;4.112;2023-05-29T13:58:07;24.50;1.00
23143;DHT22;11740;51.168;4.112;2023-05-29T14:00:34;24.60;1.00
23143;DHT22;11740;51.168;4.112;2023-05-29T14:03:01;24.80;1.00
23143;DHT22;11740;51.168;4.112;2023-05-29T14:05:27;25.00;1.00
23143;DHT22;11740;51.168;4.112;2023-05-29T14:07:54;24.80;1.00
23143;DHT22;11740;51.168;4.112;2023-05-29T14:10:21;24.80;1.00
23143;DHT22;11740;51.168;4.112;2023-05-29T14:12:48;24.90;1.00
23143;DHT22;11740;51.168;4.112;2023-05-29T14:15:15;25.10;1.00
23143;DHT22;11740;51.168;4.112;2023-05-29T14:17:43;25.10;1.00
23143;DHT22;11740;51.168;4.112;2023-05-29T14:20:10;25.20;1.00
23143;DHT22;11740;51.168;4.112;2023-05-29T14:22:36;25.20;1.00
23143;DHT22;11740;51.168;4.112;2023-05-29T14:25:04;25.30;1.00
23143;DHT22;11740;51.168;4.112;2023-05-29T14:27:31;25.20;1.00
23143;DHT22;11740;51.168;4.112;2023-05-29T14:29:58;25.30;1.00
23143;DHT22;11740;51.168;4.112;2023-05-29T14:32:25;25.40;1.00
23143;DHT22;11740;51.168;4.112;2023-05-29T14:34:52;25.40;1.00
23143;DHT22;11740;51.168;4.112;2023-05-29T14:37:19;25.50;1.00
23143;DHT22;11740;51.168;4.112;2023-05-29T14:39:46;25.40;1.00
23143;DHT22;11740;51.168;4.112;2023-05-29T14:42:13;25.40;1.00
23143;DHT22;11740;51.168;4.112;2023-05-29T14:44:42;25.40;1.00
23143;DHT22;11740;51.168;4.112;2023-05-29T14:47:08;25.50;1.00
23143;DHT22;11740;51.168;4.112;2023-05-29T14:49:36;25.60;1.00
23143;DHT22;11740;51.168;4.112;2023-05-29T14:52:03;25.60;1.00
23143;DHT22;11740;51.168;4.112;2023-05-29T14:54:31;25.60;1.00
23143;DHT22;11740;51.168;4.112;2023-05-29T14:56:57;25.70;1.00
23143;DHT22;11740;51.168;4.112;2023-05-29T14:59:24;25.80;1.00
23143;DHT22;11740;51.168;4.112;2023-05-29T15:01:51;25.90;1.00
23143;DHT22;11740;51.168;4.112;2023-05-29T15:04:20;25.90;1.00
23143;DHT22;11740;51.168;4.112;2023-05-29T15:06:47;25.80;1.00
23143;DHT22;11740;51.168;4.112;2023-05-29T15:09:28;25.80;1.00
23143;DHT22;11740;51.168;4.112;2023-05-29T15:11:55;25.70;1.00
23143;DHT22;11740;51.168;4.112;2023-05-29T15:14:22;25.60;1.00
23143;DHT22;11740;51.168;4.112;2023-05-29T15:16:50;25.70;1.00
23143;DHT22;11740;51.168;4.112;2023-05-29T15:19:17;25.60;1.00
23143;DHT22;11740;51.168;4.112;2023-05-29T15:21:44;25.60;1.00
23143;DHT22;11740;51.168;4.112;2023-05-29T15:24:11;25.60;1.00
23143;DHT22;11740;51.168;4.112;2023-05-29T15:26:38;25.70;1.00
23143;DHT22;11740;51.168;4.112;2023-05-29T15:29:05;25.90;1.00
23143;DHT22;11740;51.168;4.112;2023-05-29T15:31:32;25.70;1.00
23143;DHT22;11740;51.168;4.112;2023-05-29T15:33:59;25.80;1.00
23143;DHT22;11740;51.168;4.112;2023-05-29T15:36:27;25.80;1.00
23143;DHT22;11740;51.168;4.112;2023-05-29T15:38:55;25.60;1.00
23143;DHT22;11740;51.168;4.112;2023-05-29T15:41:23;25.70;1.00
23143;DHT22;11740;51.168;4.112;2023-05-29T15:43:55;25.70;1.00
23143;DHT22;11740;51.168;4.112;2023-05-29T15:46:25;25.60;1.00
23143;DHT22;11740;51.168;4.112;2023-05-29T15:48:53;25.60;1.00
23143;DHT22;11740;51.168;4.112;2023-05-29T15:51:20;25.70;1.00
23143;DHT22;11740;51.168;4.112;2023-05-29T15:53:48;25.70;1.00
23143;DHT22;11740;51.168;4.112;2023-05-29T15:56:15;25.60;1.00
23143;DHT22;11740;51.168;4.112;2023-05-29T15:58:42;25.40;1.00
23143;DHT22;11740;51.168;4.112;2023-05-29T16:01:09;25.40;1.00
23143;DHT22;11740;51.168;4.112;2023-05-29T16:03:37;25.60;1.00
23143;DHT22;11740;51.168;4.112;2023-05-29T16:06:04;25.60;1.00
23143;DHT22;11740;51.168;4.112;2023-05-29T16:08:31;25.60;1.00
23143;DHT22;11740;51.168;4.112;2023-05-29T16:10:58;25.60;1.00
23143;DHT22;11740;51.168;4.112;2023-05-29T16:13:26;25.50;1.00
23143;DHT22;11740;51.168;4.112;2023-05-29T16:15:53;25.40;1.00
23143;DHT22;11740;51.168;4.112;2023-05-29T16:18:21;25.40;1.00
23143;DHT22;11740;51.168;4.112;2023-05-29T16:20:49;25.50;1.00